Terminal Aerodrome Forecast
Issued by NWS

Home | Current Version | Previous Version | Text Only | Print | Product List | Glossary On
Versions: 1 2 3 4 5 6 7 8 9 10 11 12 13 14 15 16 17 18
000
FTUS43 KGRR 301131 CCA
TAFBTL
TAF COR
KBTL 301131Z 3012/3112 10009KT 5SM -RA VCTS SCT030CB OVC060
     FM301500 09014KT 3SM -SHRA OVC015
     FM301800 09013KT 3SM -SHRA VCTS OVC010CB
     FM302100 09012KT 4SM -SHRA VCTS OVC003CB=

USA.gov is the U.S. government's official web portal to all federal, state and local government web resources and services.